createdAt,value
2023-03-11T00:00:47.598Z,85.22
2023-03-11T00:03:17.096Z,85.72
2023-03-11T00:05:49.149Z,85.78
2023-03-11T00:08:21.590Z,85.77
2023-03-11T00:10:58.707Z,86.18
2023-03-11T00:13:29.057Z,86.49
2023-03-11T00:15:57.480Z,86.65
2023-03-11T00:18:33.568Z,86.98
2023-03-11T00:21:02.577Z,86.88
2023-03-11T00:23:31.118Z,86.65
2023-03-11T00:26:01.308Z,86.71
2023-03-11T00:28:29.500Z,86.73
2023-03-11T00:30:57.735Z,86.68
2023-03-11T00:33:26.343Z,86.77
2023-03-11T00:35:55.135Z,87.04
2023-03-11T00:38:24.388Z,87.03
2023-03-11T00:40:52.417Z,86.62
2023-03-11T00:43:20.720Z,86.42
2023-03-11T00:45:49.029Z,86.22
2023-03-11T00:48:17.327Z,86.13
2023-03-11T00:50:45.529Z,86.11
2023-03-11T00:53:16.183Z,86.24
2023-03-11T00:55:44.291Z,86.33
2023-03-11T00:58:13.795Z,86.52
2023-03-11T01:00:46.035Z,86.60
2023-03-11T01:03:14.233Z,86.45
2023-03-11T01:05:45.634Z,86.33
2023-03-11T01:08:14.143Z,86.50
2023-03-11T01:10:42.113Z,86.08
2023-03-11T01:13:10.061Z,86.00
2023-03-11T01:15:40.402Z,85.80
2023-03-11T01:18:10.299Z,85.59
2023-03-11T01:20:38.856Z,85.34
2023-03-11T01:23:07.402Z,85.17
2023-03-11T01:25:35.871Z,85.19
2023-03-11T01:28:03.997Z,85.22
2023-03-11T01:30:32.406Z,85.48
2023-03-11T01:33:01.128Z,85.91
2023-03-11T01:35:30.665Z,86.03
2023-03-11T01:37:58.587Z,86.33
2023-03-11T01:40:30.337Z,86.20
2023-03-11T01:43:00.164Z,86.13
2023-03-11T01:45:28.995Z,85.95
2023-03-11T01:47:56.789Z,85.75
2023-03-11T01:50:24.893Z,85.42
2023-03-11T01:52:53.027Z,85.35
2023-03-11T01:55:21.624Z,85.59
2023-03-11T01:57:49.896Z,85.73
2023-03-11T02:00:19.166Z,86.00
2023-03-11T02:02:51.543Z,86.23
2023-03-11T02:05:23.228Z,86.61
2023-03-11T02:07:55.368Z,86.97
2023-03-11T02:10:26.276Z,87.13
2023-03-11T02:12:56.387Z,87.32
2023-03-11T02:15:24.521Z,87.74
2023-03-11T02:17:56.517Z,88.08
2023-03-11T02:20:50.162Z,88.56
2023-03-11T02:23:25.174Z,88.88
2023-03-11T02:26:00.521Z,89.09
2023-03-11T02:28:32.218Z,89.00
2023-03-11T02:31:00.663Z,88.99
2023-03-11T02:33:31.102Z,88.70
2023-03-11T02:35:59.122Z,88.40
2023-03-11T02:38:27.629Z,88.25
2023-03-11T02:40:57.222Z,88.02
2023-03-11T02:43:35.150Z,87.77
2023-03-11T02:46:05.674Z,87.62
2023-03-11T02:48:35.134Z,87.60
2023-03-11T02:51:05.799Z,87.33
2023-03-11T02:53:43.593Z,86.91
2023-03-11T02:56:11.652Z,86.64
2023-03-11T02:58:39.523Z,86.37
2023-03-11T03:01:08.091Z,86.09
2023-03-11T03:03:36.531Z,86.03
2023-03-11T03:06:06.334Z,85.77
2023-03-11T03:08:34.234Z,85.59
2023-03-11T03:11:03.359Z,85.48
2023-03-11T03:13:32.471Z,85.14
2023-03-11T03:16:02.982Z,84.82
2023-03-11T03:18:31.200Z,84.66
2023-03-11T03:21:01.678Z,84.54
2023-03-11T03:23:35.005Z,84.43
2023-03-11T03:26:02.901Z,84.49
2023-03-11T03:28:32.329Z,84.35
2023-03-11T03:31:05.242Z,84.29
2023-03-11T03:33:34.500Z,84.02
2023-03-11T03:36:07.465Z,84.02
2023-03-11T03:38:42.413Z,83.94
2023-03-11T03:41:10.493Z,83.98
2023-03-11T03:43:40.428Z,83.75
2023-03-11T03:46:09.060Z,83.61
2023-03-11T03:48:41.096Z,83.76
2023-03-11T03:51:10.788Z,83.96
2023-03-11T03:53:41.832Z,83.94
2023-03-11T03:56:17.135Z,83.91
2023-03-11T03:58:45.842Z,83.63
2023-03-11T04:01:14.179Z,83.40
2023-03-11T04:03:43.095Z,83.37
2023-03-11T04:06:20.540Z,83.36
2023-03-11T04:08:52.783Z,83.38
2023-03-11T04:11:22.995Z,83.33
2023-03-11T04:13:55.757Z,83.27
2023-03-11T04:16:25.488Z,83.17
2023-03-11T04:18:59.832Z,83.25
2023-03-11T04:21:27.983Z,83.09
2023-03-11T04:24:01.557Z,83.12
2023-03-11T04:26:32.752Z,83.15
2023-03-11T04:29:01.333Z,83.29
2023-03-11T04:31:31.118Z,83.44
2023-03-11T04:34:05.813Z,83.37
2023-03-11T04:36:37.646Z,83.24
2023-03-11T04:39:05.859Z,83.52
2023-03-11T04:41:38.135Z,83.45
2023-03-11T04:44:06.433Z,83.34
2023-03-11T04:46:34.359Z,83.29
2023-03-11T04:49:03.209Z,83.20
2023-03-11T04:51:32.051Z,83.34
2023-03-11T04:54:01.884Z,83.47
2023-03-11T04:56:32.840Z,83.82
2023-03-11T04:59:01.919Z,83.88
2023-03-11T05:01:32.269Z,84.20
2023-03-11T05:04:02.215Z,84.18
2023-03-11T05:06:31.482Z,84.11
2023-03-11T05:09:00.220Z,84.01
2023-03-11T05:11:28.873Z,83.97
2023-03-11T05:13:57.339Z,84.09
2023-03-11T05:16:25.509Z,84.07
2023-03-11T05:18:53.682Z,84.25
2023-03-11T05:21:24.681Z,84.50
2023-03-11T05:23:54.390Z,84.36
2023-03-11T05:26:22.512Z,83.65
2023-03-11T05:28:50.686Z,82.71
2023-03-11T05:31:19.881Z,80.98
2023-03-11T05:33:53.903Z,78.97
2023-03-11T05:36:24.022Z,77.35
2023-03-11T05:38:53.351Z,75.85
2023-03-11T05:41:21.872Z,74.97
2023-03-11T05:43:49.969Z,74.70
2023-03-11T05:46:18.045Z,74.61
2023-03-11T05:48:46.603Z,74.91
2023-03-11T05:51:15.128Z,75.50
2023-03-11T05:53:48.232Z,76.32
2023-03-11T05:56:20.010Z,76.97
2023-03-11T05:58:49.786Z,77.67
2023-03-11T06:01:19.394Z,78.28
2023-03-11T06:03:58.121Z,78.98
2023-03-11T06:06:30.106Z,79.53
2023-03-11T06:08:59.630Z,80.03
2023-03-11T06:11:29.099Z,80.43
2023-03-11T06:14:56.198Z,81.20
2023-03-11T06:17:25.800Z,81.57
2023-03-11T06:19:54.089Z,81.89
2023-03-11T06:22:22.899Z,82.28
2023-03-11T06:24:50.841Z,82.37
2023-03-11T06:27:19.345Z,82.55
2023-03-11T06:29:48.690Z,82.77
2023-03-11T06:32:19.312Z,83.02
2023-03-11T06:34:53.662Z,83.05
2023-03-11T06:37:25.063Z,83.01
2023-03-11T06:39:53.640Z,82.99
2023-03-11T06:42:25.581Z,82.87
2023-03-11T06:44:55.330Z,82.93
2023-03-11T06:47:26.836Z,82.69
2023-03-11T06:49:55.843Z,82.80
2023-03-11T06:52:23.954Z,82.26
2023-03-11T06:54:52.070Z,82.00
2023-03-11T06:57:19.997Z,81.89
2023-03-11T06:59:48.548Z,81.96
2023-03-11T07:02:17.669Z,81.94
2023-03-11T07:04:45.878Z,81.62
2023-03-11T07:07:13.748Z,81.43
2023-03-11T07:09:42.130Z,81.03
2023-03-11T07:12:14.113Z,81.02
2023-03-11T07:14:42.133Z,80.93
2023-03-11T07:17:10.130Z,81.00
2023-03-11T07:19:43.835Z,80.97
2023-03-11T07:22:12.853Z,81.03
2023-03-11T07:24:50.319Z,80.98
2023-03-11T07:27:18.810Z,81.03
2023-03-11T07:29:46.856Z,80.92
2023-03-11T07:32:15.196Z,80.68
2023-03-11T07:34:45.676Z,80.51
2023-03-11T07:37:15.501Z,80.50
2023-03-11T07:39:43.642Z,80.63
2023-03-11T07:42:11.735Z,80.88
2023-03-11T07:44:42.528Z,81.07
2023-03-11T07:47:10.531Z,81.11
2023-03-11T07:49:41.279Z,81.01
2023-03-11T07:52:09.236Z,80.96
2023-03-11T07:54:37.204Z,81.17
2023-03-11T07:57:06.098Z,81.66
2023-03-11T07:59:33.977Z,81.81
2023-03-11T08:02:02.840Z,82.26
2023-03-11T08:04:31.540Z,82.35
2023-03-11T08:06:59.424Z,82.05
2023-03-11T08:09:27.242Z,81.81
2023-03-11T08:11:55.874Z,81.85
2023-03-11T08:14:26.080Z,81.97
2023-03-11T08:16:56.860Z,82.18
2023-03-11T08:19:25.022Z,82.24
2023-03-11T08:21:52.855Z,82.75
2023-03-11T08:24:21.851Z,83.61
2023-03-11T08:26:52.125Z,84.39
2023-03-11T08:29:20.053Z,84.68
2023-03-11T08:31:48.001Z,84.81
2023-03-11T08:34:16.461Z,85.16
2023-03-11T08:36:50.262Z,85.58
2023-03-11T08:39:18.335Z,85.75
2023-03-11T08:41:49.375Z,86.66
2023-03-11T08:44:17.739Z,87.52
2023-03-11T08:46:45.747Z,88.11
2023-03-11T08:49:17.297Z,88.81
2023-03-11T08:51:45.810Z,89.28
2023-03-11T08:54:17.795Z,89.63
2023-03-11T08:56:47.866Z,90.25
2023-03-11T08:59:15.829Z,91.15
2023-03-11T09:01:44.334Z,91.92
2023-03-11T09:04:12.777Z,92.69
2023-03-11T09:06:44.082Z,93.26
2023-03-11T09:09:12.130Z,94.03
2023-03-11T09:11:41.776Z,94.45
2023-03-11T09:14:10.736Z,94.72
2023-03-11T09:16:39.673Z,94.88
2023-03-11T09:19:07.629Z,95.13
2023-03-11T09:21:38.557Z,95.68
2023-03-11T09:24:07.116Z,96.25
2023-03-11T09:26:34.995Z,96.71
2023-03-11T09:29:02.802Z,97.29
2023-03-11T09:31:30.850Z,97.59
2023-03-11T09:33:58.860Z,97.80
2023-03-11T09:36:26.837Z,97.85
2023-03-11T09:38:57.072Z,98.00
2023-03-11T09:41:55.194Z,98.26
2023-03-11T09:44:52.435Z,98.37
2023-03-11T09:47:40.884Z,98.62
2023-03-11T09:50:49.663Z,98.89
2023-03-11T09:53:42.677Z,99.01
2023-03-11T09:56:18.465Z,99.19
2023-03-11T09:58:49.149Z,99.14
2023-03-11T10:01:26.502Z,99.04
2023-03-11T10:04:07.770Z,99.24
2023-03-11T10:06:35.572Z,99.39
2023-03-11T10:09:13.018Z,99.72
2023-03-11T10:12:03.298Z,99.99
2023-03-11T10:14:49.265Z,100.00
2023-03-11T10:17:47.199Z,100.00
2023-03-11T10:20:23.946Z,100.00
2023-03-11T10:22:54.920Z,100.00
2023-03-11T10:25:40.073Z,100.00
2023-03-11T10:28:13.437Z,100.00
2023-03-11T10:30:43.889Z,100.00
2023-03-11T10:33:20.458Z,100.00
2023-03-11T10:35:55.396Z,100.00
2023-03-11T10:38:26.557Z,100.00
2023-03-11T10:40:55.659Z,100.00
2023-03-11T10:43:41.747Z,100.00
2023-03-11T10:46:38.516Z,100.00
2023-03-11T10:49:17.056Z,100.00
2023-03-11T10:51:51.662Z,100.00
2023-03-11T10:54:31.699Z,100.00
2023-03-11T10:57:04.540Z,100.00
2023-03-11T10:59:50.665Z,100.00
2023-03-11T11:02:26.108Z,100.00
2023-03-11T11:05:06.144Z,100.00
2023-03-11T11:07:36.598Z,100.00
2023-03-11T11:10:26.680Z,100.00
2023-03-11T11:13:00.919Z,100.00
2023-03-11T11:15:35.381Z,100.00
2023-03-11T11:18:19.098Z,100.00
2023-03-11T11:21:06.643Z,100.00
2023-03-11T11:23:52.570Z,100.00
2023-03-11T11:26:26.411Z,100.00
2023-03-11T11:29:09.745Z,100.00
2023-03-11T11:31:42.805Z,100.00
2023-03-11T11:34:31.393Z,100.00
2023-03-11T11:37:01.053Z,100.00
2023-03-11T11:39:32.391Z,100.00
2023-03-11T11:42:03.185Z,100.00
2023-03-11T11:44:33.988Z,100.00
2023-03-11T11:47:17.450Z,100.00
2023-03-11T11:50:00.044Z,100.00
2023-03-11T11:52:31.028Z,100.00
2023-03-11T11:55:06.930Z,100.00
2023-03-11T11:57:35.259Z,100.00
2023-03-11T12:00:16.173Z,100.00
2023-03-11T12:02:53.090Z,100.00
2023-03-11T12:05:31.368Z,100.00
2023-03-11T12:08:05.843Z,100.00
2023-03-11T12:10:49.573Z,100.00
2023-03-11T12:13:29.160Z,100.00
2023-03-11T12:16:00.388Z,100.00
2023-03-11T12:18:52.569Z,100.00
2023-03-11T12:21:47.184Z,100.00
2023-03-11T12:24:26.524Z,100.00
2023-03-11T12:26:59.121Z,100.00
2023-03-11T12:29:30.348Z,100.00
2023-03-11T12:31:58.277Z,100.00
2023-03-11T12:34:26.142Z,100.00
2023-03-11T12:36:54.188Z,100.00
2023-03-11T12:39:31.624Z,100.00
2023-03-11T12:42:38.286Z,100.00
2023-03-11T12:45:49.600Z,100.00
2023-03-11T12:48:29.507Z,100.00
2023-03-11T12:50:57.779Z,100.00
2023-03-11T12:53:45.713Z,100.00
2023-03-11T12:56:29.400Z,100.00
2023-03-11T12:59:22.341Z,100.00
2023-03-11T13:02:03.757Z,100.00
2023-03-11T13:04:41.586Z,100.00
2023-03-11T13:07:25.653Z,100.00
2023-03-11T13:10:06.881Z,100.00
2023-03-11T13:12:48.697Z,100.00
2023-03-11T13:15:22.752Z,100.00
2023-03-11T13:18:16.025Z,100.00
2023-03-11T13:20:49.286Z,100.00
2023-03-11T13:23:21.799Z,100.00
2023-03-11T13:25:53.712Z,100.00
2023-03-11T13:28:56.742Z,100.00
2023-03-11T13:31:24.833Z,100.00
2023-03-11T13:33:53.651Z,100.00
2023-03-11T13:36:33.090Z,100.00
2023-03-11T13:39:38.816Z,100.00
2023-03-11T13:42:17.345Z,100.00
2023-03-11T13:44:45.237Z,100.00
2023-03-11T13:47:17.262Z,100.00
2023-03-11T13:49:52.738Z,100.00
2023-03-11T13:52:32.119Z,100.00
2023-03-11T13:55:04.085Z,100.00
2023-03-11T13:57:36.388Z,100.00
2023-03-11T14:00:24.136Z,100.00
2023-03-11T14:02:56.633Z,100.00
2023-03-11T14:05:26.921Z,100.00
2023-03-11T14:07:54.868Z,100.00
2023-03-11T14:10:29.796Z,100.00
2023-03-11T14:13:14.342Z,100.00
2023-03-11T14:15:59.185Z,100.00
2023-03-11T14:18:44.030Z,100.00
2023-03-11T14:21:15.728Z,100.00
2023-03-11T14:23:50.152Z,100.00
2023-03-11T14:26:24.381Z,100.00
2023-03-11T14:28:53.564Z,100.00
2023-03-11T14:31:34.085Z,100.00
2023-03-11T14:34:10.390Z,100.00
2023-03-11T14:36:42.304Z,100.00
2023-03-11T14:39:39.938Z,100.00
2023-03-11T14:42:23.907Z,100.00
2023-03-11T14:44:54.801Z,100.00
2023-03-11T14:48:08.614Z,100.00
2023-03-11T14:50:38.966Z,100.00
2023-03-11T14:53:19.958Z,100.00
2023-03-11T14:55:51.125Z,100.00
2023-03-11T14:58:36.013Z,100.00
2023-03-11T15:01:17.862Z,100.00
2023-03-11T15:03:46.803Z,100.00
2023-03-11T15:06:19.051Z,100.00
2023-03-11T15:08:48.660Z,100.00
2023-03-11T15:11:17.005Z,100.00
2023-03-11T15:13:47.493Z,100.00
2023-03-11T15:16:35.539Z,100.00
2023-03-11T15:19:28.262Z,100.00
2023-03-11T15:21:59.504Z,100.00
2023-03-11T15:24:31.775Z,100.00
2023-03-11T15:27:02.053Z,100.00
2023-03-11T15:29:32.259Z,100.00
2023-03-11T15:32:25.906Z,100.00
2023-03-11T15:35:26.827Z,100.00
2023-03-11T15:38:21.554Z,100.00
2023-03-11T15:40:53.163Z,100.00
2023-03-11T15:43:30.054Z,100.00
2023-03-11T15:45:59.177Z,100.00
2023-03-11T15:48:29.281Z,100.00
2023-03-11T15:50:58.447Z,100.00
2023-03-11T15:53:28.444Z,100.00
2023-03-11T15:56:07.694Z,100.00
2023-03-11T15:58:39.135Z,100.00
2023-03-11T16:01:09.910Z,100.00
2023-03-11T16:03:39.191Z,100.00
2023-03-11T16:06:07.777Z,100.00
2023-03-11T16:08:38.232Z,100.00
2023-03-11T16:11:09.984Z,100.00
2023-03-11T16:13:45.399Z,100.00
2023-03-11T16:16:17.518Z,100.00
2023-03-11T16:18:45.718Z,100.00
2023-03-11T16:21:16.097Z,100.00
2023-03-11T16:23:51.540Z,100.00
2023-03-11T16:26:21.851Z,100.00
2023-03-11T16:28:52.313Z,100.00
2023-03-11T16:31:20.576Z,100.00
2023-03-11T16:33:52.523Z,100.00
2023-03-11T16:36:21.621Z,100.00
2023-03-11T16:38:50.026Z,100.00
2023-03-11T16:41:18.623Z,100.00
2023-03-11T16:43:49.172Z,100.00
2023-03-11T16:46:17.434Z,100.00
2023-03-11T16:48:45.369Z,100.00
2023-03-11T16:51:21.087Z,100.00
2023-03-11T16:53:53.280Z,100.00
2023-03-11T16:56:22.760Z,99.99
2023-03-11T16:58:50.757Z,99.63
2023-03-11T17:01:19.299Z,99.44
2023-03-11T17:03:49.922Z,99.36
2023-03-11T17:06:17.897Z,99.19
2023-03-11T17:08:51.140Z,99.02
2023-03-11T17:11:21.186Z,99.14
2023-03-11T17:13:52.131Z,99.12
2023-03-11T17:16:20.099Z,98.89
2023-03-11T17:18:49.637Z,98.61
2023-03-11T17:21:17.751Z,98.35
2023-03-11T17:23:50.063Z,98.26
2023-03-11T17:26:18.148Z,98.08
2023-03-11T17:28:47.096Z,98.17
2023-03-11T17:31:15.693Z,98.09
2023-03-11T17:33:43.720Z,97.95
2023-03-11T17:36:14.250Z,97.92
2023-03-11T17:38:46.350Z,97.77
2023-03-11T17:41:17.114Z,97.71
2023-03-11T17:43:45.278Z,97.97
2023-03-11T17:46:17.652Z,97.72
2023-03-11T17:48:46.888Z,97.57
2023-03-11T17:51:19.077Z,97.37
2023-03-11T17:53:47.232Z,97.18
2023-03-11T17:56:21.904Z,97.13
2023-03-11T17:58:50.747Z,97.02
2023-03-11T18:01:20.492Z,96.81
2023-03-11T18:03:48.921Z,96.64
2023-03-11T18:06:19.508Z,96.61
2023-03-11T18:08:47.389Z,96.61
2023-03-11T18:11:19.793Z,96.74
2023-03-11T18:13:47.968Z,97.09
2023-03-11T18:16:23.254Z,97.06
2023-03-11T18:18:52.318Z,97.35
2023-03-11T18:21:27.304Z,97.55
2023-03-11T18:23:59.603Z,97.64
2023-03-11T18:26:29.921Z,97.46
2023-03-11T18:28:58.810Z,97.16
2023-03-11T18:33:23.152Z,96.99
2023-03-11T18:35:51.142Z,96.79
2023-03-11T18:38:22.201Z,96.85
2023-03-11T18:40:57.883Z,96.89
2023-03-11T18:43:25.855Z,96.89
2023-03-11T18:45:54.025Z,96.92
2023-03-11T18:48:23.035Z,97.06
2023-03-11T18:50:53.371Z,97.08
2023-03-11T18:53:21.582Z,97.10
2023-03-11T18:55:53.353Z,96.99
2023-03-11T18:58:21.219Z,97.04
2023-03-11T19:00:49.099Z,97.17
2023-03-11T19:03:17.665Z,97.13
2023-03-11T19:05:50.796Z,97.14
2023-03-11T19:08:19.794Z,97.12
2023-03-11T19:10:51.149Z,97.33
2023-03-11T19:13:20.605Z,97.32
2023-03-11T19:15:48.455Z,97.35
2023-03-11T19:18:16.348Z,97.57
2023-03-11T19:20:44.829Z,97.79
2023-03-11T19:23:13.034Z,98.01
2023-03-11T19:25:44.032Z,98.14
2023-03-11T19:28:21.894Z,98.19
2023-03-11T19:30:51.859Z,98.22
2023-03-11T19:33:21.083Z,98.18
2023-03-11T19:35:56.840Z,98.25
2023-03-11T19:38:25.060Z,98.38
2023-03-11T19:41:03.879Z,98.84
2023-03-11T19:43:32.187Z,99.87
2023-03-11T19:46:00.270Z,100.00
2023-03-11T19:48:32.093Z,100.00
2023-03-11T19:51:07.329Z,100.00
2023-03-11T19:53:36.531Z,100.00
2023-03-11T19:56:07.544Z,100.00
2023-03-11T19:58:38.592Z,100.00
2023-03-11T20:01:06.543Z,100.00
2023-03-11T20:03:34.770Z,100.00
2023-03-11T20:06:05.117Z,100.00
2023-03-11T20:08:36.730Z,100.00
2023-03-11T20:11:10.719Z,100.00
2023-03-11T20:13:41.111Z,100.00
2023-03-11T20:16:10.914Z,100.00
2023-03-11T20:18:40.084Z,100.00
2023-03-11T20:21:13.087Z,100.00
2023-03-11T20:23:41.002Z,100.00
2023-03-11T20:26:11.615Z,100.00
2023-03-11T20:28:40.009Z,100.00
2023-03-11T20:31:14.688Z,100.00
2023-03-11T20:33:45.945Z,100.00
2023-03-11T20:36:16.944Z,100.00
2023-03-11T20:38:51.098Z,100.00
2023-03-11T20:41:19.127Z,100.00
2023-03-11T20:43:47.293Z,100.00
2023-03-11T20:46:17.000Z,100.00
2023-03-11T20:48:47.045Z,100.00
2023-03-11T20:51:19.484Z,100.00
2023-03-11T20:53:47.589Z,100.00
2023-03-11T20:56:18.610Z,100.00
2023-03-11T20:58:48.710Z,100.00
2023-03-11T21:01:26.781Z,100.00
2023-03-11T21:03:59.149Z,100.00
2023-03-11T21:06:35.263Z,100.00
2023-03-11T21:09:06.032Z,100.00
2023-03-11T21:11:34.235Z,100.00
2023-03-11T21:14:02.358Z,100.00
2023-03-11T21:16:31.523Z,100.00
2023-03-11T21:19:01.538Z,100.00
2023-03-11T21:21:30.713Z,100.00
2023-03-11T21:23:58.850Z,100.00
2023-03-11T21:26:27.084Z,100.00
2023-03-11T21:29:01.156Z,100.00
2023-03-11T21:31:30.069Z,100.00
2023-03-11T21:33:58.988Z,100.00
2023-03-11T21:36:27.956Z,100.00
2023-03-11T21:38:55.895Z,100.00
2023-03-11T21:41:25.721Z,100.00
2023-03-11T21:43:54.271Z,99.91
2023-03-11T21:46:25.367Z,99.71
2023-03-11T21:48:57.432Z,99.39
2023-03-11T21:51:25.858Z,99.09
2023-03-11T21:53:54.451Z,98.98
2023-03-11T21:56:22.504Z,98.81
2023-03-11T21:58:50.572Z,98.45
2023-03-11T22:01:20.350Z,98.27
2023-03-11T22:03:48.502Z,98.13
2023-03-11T22:06:17.131Z,97.85
2023-03-11T22:08:51.610Z,97.57
2023-03-11T22:11:20.696Z,97.39
2023-03-11T22:13:51.327Z,97.21
2023-03-11T22:16:19.996Z,97.14
2023-03-11T22:18:49.910Z,97.02
2023-03-11T22:21:18.571Z,96.82
2023-03-11T22:23:49.169Z,96.78
2023-03-11T22:26:21.019Z,96.82
2023-03-11T22:28:51.328Z,96.81
2023-03-11T22:31:19.262Z,96.73
2023-03-11T22:33:49.515Z,96.74
2023-03-11T22:36:17.642Z,96.84
2023-03-11T22:38:46.226Z,96.68
2023-03-11T22:41:19.332Z,96.34
2023-03-11T22:43:53.726Z,96.17
2023-03-11T22:46:25.531Z,96.03
2023-03-11T22:48:53.473Z,96.12
2023-03-11T22:51:22.874Z,96.14
2023-03-11T22:53:50.788Z,96.02
2023-03-11T22:56:18.803Z,96.10
2023-03-11T22:58:46.951Z,96.11
2023-03-11T23:01:16.642Z,96.20
2023-03-11T23:03:45.940Z,96.33
2023-03-11T23:06:18.049Z,96.48
2023-03-11T23:08:46.330Z,96.51
2023-03-11T23:11:16.125Z,96.59
2023-03-11T23:13:44.697Z,96.69
2023-03-11T23:16:14.787Z,96.99
2023-03-11T23:18:52.206Z,96.94
2023-03-11T23:21:31.199Z,96.83
2023-03-11T23:24:02.453Z,96.70
2023-03-11T23:26:30.569Z,96.63
2023-03-11T23:28:58.550Z,96.50
2023-03-11T23:31:28.121Z,96.59
2023-03-11T23:33:57.106Z,96.53
2023-03-11T23:36:27.587Z,96.49
2023-03-11T23:38:58.300Z,96.56
2023-03-11T23:41:26.655Z,96.48
2023-03-11T23:43:55.712Z,96.37
2023-03-11T23:46:24.216Z,96.13
2023-03-11T23:48:52.324Z,96.17
2023-03-11T23:51:20.265Z,96.10
2023-03-11T23:53:50.866Z,96.04
2023-03-11T23:56:19.229Z,96.02
2023-03-11T23:58:54.832Z,96.04
